Terminal Aerodrome Forecast
Issued by NWS Twin Cities, MN

Home | Current Version | Previous Version | Graphics & Text | Print | Product List | Glossary On
Versions: 1 2 3 4 5 6 7 8 9 10 11 12 13 14 15 16 17 18 19 20 21 22 23 24 25 26 27 28 29 30 31
000
FTUS43 KMPX 241457 AAC
TAFMSP
TAF AMD
KMSP 241457Z 2415/2518 01008KT P6SM BKN010 OVC025
     FM241800 02011KT P6SM SCT012 OVC025
     FM242200 03012G18KT P6SM BKN025
     FM250500 04011KT P6SM OVC015=

USA.gov is the U.S. government's official web portal to all federal, state and local government web resources and services.